Time;durP1;ratioP1;P1;durP2;ratioP2;P2;SDS_P1;SDS_P2;PMS_P1;PMS_P2;Temp;Humidity;BMP_temperature;BMP_pressure;BME280_temperature;BME280_humidity;BME280_pressure;Samples;Min_cycle;Max_cycle;Signal;HPM_P1;HPM_P2
2022/09/12 00:01:22;;;;;;;;;;;15.20;70.60;;;;;;5059146;28;19916;-77
2022/09/12 00:03:51;;;;;;;;;;;15.40;70.50;;;;;;5061536;28;19955;-73
2022/09/12 00:06:25;;;;;;;;;;;15.40;70.00;;;;;;5062276;28;20035;-76
2022/09/12 00:08:56;;;;;;;;;;;15.40;70.30;;;;;;5061787;28;19909;-72
2022/09/12 00:11:23;;;;;;;;;;;15.50;69.70;;;;;;5062147;28;19916;-74
2022/09/12 00:13:50;;;;;;;;;;;15.60;70.40;;;;;;5060732;28;19913;-76
2022/09/12 00:16:18;;;;;;;;;;;15.70;70.10;;;;;;5060143;28;19909;-75
2022/09/12 00:18:45;;;;;;;;;;;15.70;69.40;;;;;;5061809;28;19908;-73
2022/09/12 00:21:12;;;;;;;;;;;15.80;69.70;;;;;;5061031;28;19909;-77
2022/09/12 00:23:38;;;;;;;;;;;15.90;70.30;;;;;;5060155;28;19916;-76
2022/09/12 00:26:05;;;;;;;;;;;15.90;69.50;;;;;;5061885;28;20381;-75
2022/09/12 00:28:33;;;;;;;;;;;16.00;68.70;;;;;;5061120;28;19909;-75
2022/09/12 00:31:03;;;;;;;;;;;16.00;68.90;;;;;;5058667;28;19925;-76
2022/09/12 00:33:30;;;;;;;;;;;16.10;69.60;;;;;;5061178;28;20345;-77
2022/09/12 00:35:56;;;;;;;;;;;16.20;68.40;;;;;;5061432;28;20316;-75
2022/09/12 00:38:23;;;;;;;;;;;16.20;69.00;;;;;;5059783;28;20059;-76
2022/09/12 00:40:50;;;;;;;;;;;16.30;68.50;;;;;;5061100;28;20364;-76
2022/09/12 00:43:35;;;;;;;;;;;16.40;68.10;;;;;;5061795;28;20349;-75
2022/09/12 00:46:06;;;;;;;;;;;16.40;68.30;;;;;;5062221;28;19913;-78
2022/09/12 00:48:36;;;;;;;;;;;16.40;67.90;;;;;;5060593;28;19912;-77
2022/09/12 00:51:03;;;;;;;;;;;16.50;67.70;;;;;;5061529;28;19916;-73
2022/09/12 00:53:30;;;;;;;;;;;16.50;68.20;;;;;;5060512;28;19916;-73
2022/09/12 00:55:57;;;;;;;;;;;16.60;68.70;;;;;;5060262;28;19908;-75
2022/09/12 00:58:27;;;;;;;;;;;16.70;68.00;;;;;;5061582;28;19959;-77
2022/09/12 01:00:54;;;;;;;;;;;16.80;67.80;;;;;;5061127;28;19975;-72
2022/09/12 01:03:21;;;;;;;;;;;16.80;67.90;;;;;;5059200;28;19919;-76
2022/09/12 01:06:02;;;;;;;;;;;16.90;68.30;;;;;;5060590;28;19970;-76
2022/09/12 01:08:28;;;;;;;;;;;17.10;67.70;;;;;;5053428;28;20400;-75
2022/09/12 01:10:56;;;;;;;;;;;17.20;66.10;;;;;;5051696;28;19917;-75
2022/09/12 01:13:23;;;;;;;;;;;17.20;66.20;;;;;;5054918;28;19960;-77
2022/09/12 01:15:50;;;;;;;;;;;17.30;66.40;;;;;;5060628;28;20430;-76
2022/09/12 01:18:26;;;;;;;;;;;17.40;66.30;;;;;;5061230;28;19913;-78
2022/09/12 01:20:59;;;;;;;;;;;17.50;65.60;;;;;;5059897;28;19948;-77
2022/09/12 01:23:54;;;;;;;;;;;17.60;65.80;;;;;;5065259;28;19908;-76
2022/09/12 01:26:38;;;;;;;;;;;17.60;65.60;;;;;;5065221;28;19912;-76
2022/09/12 01:29:14;;;;;;;;;;;17.80;65.80;;;;;;5065496;28;19967;-76
2022/09/12 01:31:47;;;;;;;;;;;17.90;65.80;;;;;;5063156;28;19924;-75
2022/09/12 01:34:27;;;;;;;;;;;18.00;65.30;;;;;;5065064;28;20280;-78
2022/09/12 01:36:56;;;;;;;;;;;18.10;66.00;;;;;;5064980;28;19915;-74
2022/09/12 01:39:32;;;;;;;;;;;18.20;65.50;;;;;;5047095;28;19946;-74
2022/09/12 01:42:02;;;;;;;;;;;18.40;65.50;;;;;;5063009;28;19991;-74
2022/09/12 01:44:37;;;;;;;;;;;18.60;65.50;;;;;;5063877;28;19966;-72
2022/09/12 01:47:15;;;;;;;;;;;18.70;64.60;;;;;;5062940;28;20269;-73
2022/09/12 01:49:45;;;;;;;;;;;18.70;64.50;;;;;;5061958;28;19921;-75
2022/09/12 01:52:15;;;;;;;;;;;18.90;64.50;;;;;;5061517;28;20011;-73
2022/09/12 01:54:44;;;;;;;;;;;19.10;64.60;;;;;;5062561;28;19917;-74
2022/09/12 01:57:17;;;;;;;;;;;19.20;64.70;;;;;;5061188;28;19956;-76
2022/09/12 01:59:45;;;;;;;;;;;19.50;64.30;;;;;;5061422;28;19965;-74
2022/09/12 02:02:15;;;;;;;;;;;19.70;63.20;;;;;;5061117;28;20254;-74
2022/09/12 02:04:51;;;;;;;;;;;19.90;62.10;;;;;;5061962;28;19917;-72
2022/09/12 02:07:20;;;;;;;;;;;19.90;64.90;;;;;;5062027;28;19912;-77
2022/09/12 02:09:50;;;;;;;;;;;20.10;63.20;;;;;;5061886;28;19913;-80
2022/09/12 02:12:20;;;;;;;;;;;20.30;63.20;;;;;;5061400;28;19916;-78
2022/09/12 02:14:49;;;;;;;;;;;20.30;61.60;;;;;;5060574;28;19931;-79
2022/09/12 02:17:18;;;;;;;;;;;20.50;63.20;;;;;;5061102;28;19943;-75
2022/09/12 02:19:53;;;;;;;;;;;20.60;61.20;;;;;;5060981;28;19905;-75
2022/09/12 02:22:22;;;;;;;;;;;20.70;61.70;;;;;;5061745;28;20011;-75
2022/09/12 02:24:50;;;;;;;;;;;20.80;61.90;;;;;;5060974;28;19909;-72
2022/09/12 02:27:36;;;;;;;;;;;20.90;62.00;;;;;;5056442;28;19956;-74
2022/09/12 02:30:04;;;;;;;;;;;20.90;61.50;;;;;;5067409;28;20434;-80
2022/09/12 02:32:41;;;;;;;;;;;21.10;60.50;;;;;;5066749;28;19920;-78
2022/09/12 02:35:14;;;;;;;;;;;21.20;60.40;;;;;;5065782;28;19908;-75
2022/09/12 02:37:44;;;;;;;;;;;21.50;60.70;;;;;;5066999;28;20312;-78
2022/09/12 02:40:11;;;;;;;;;;;21.80;59.70;;;;;;5066223;28;19909;-82
2022/09/12 02:42:37;;;;;;;;;;;22.00;59.70;;;;;;5067283;28;19913;-73
2022/09/12 02:45:04;;;;;;;;;;;22.10;58.90;;;;;;5067826;28;20421;-84
2022/09/12 02:47:38;;;;;;;;;;;22.60;59.30;;;;;;5064493;28;19909;-76
2022/09/12 02:50:06;;;;;;;;;;;23.00;58.90;;;;;;5061056;28;19971;-76
2022/09/12 02:52:34;;;;;;;;;;;23.50;58.60;;;;;;5061254;28;19912;-84
2022/09/12 02:55:02;;;;;;;;;;;24.00;56.70;;;;;;5062141;28;19999;-80
2022/09/12 02:57:29;;;;;;;;;;;24.40;56.20;;;;;;5061765;28;19908;-74
2022/09/12 02:59:58;;;;;;;;;;;24.50;55.70;;;;;;5060255;28;20381;-74
2022/09/12 03:02:24;;;;;;;;;;;24.90;55.80;;;;;;5060737;28;19955;-76
2022/09/12 03:05:00;;;;;;;;;;;25.20;54.90;;;;;;5059037;28;19916;-75
2022/09/12 03:07:30;;;;;;;;;;;25.40;55.00;;;;;;5044916;28;19917;-77
2022/09/12 03:10:15;;;;;;;;;;;26.00;53.80;;;;;;5061044;28;19990;-75
2022/09/12 03:13:05;;;;;;;;;;;26.30;53.50;;;;;;5061763;28;20369;-77
2022/09/12 03:15:52;;;;;;;;;;;26.60;52.90;;;;;;5060666;28;19961;-75
2022/09/12 03:18:48;;;;;;;;;;;27.00;53.00;;;;;;5059015;28;19908;-75
2022/09/12 03:21:25;;;;;;;;;;;27.10;53.40;;;;;;5013765;28;19916;-77
2022/09/12 03:24:18;;;;;;;;;;;27.50;52.90;;;;;;5056875;28;19912;-77
2022/09/12 03:26:50;;;;;;;;;;;27.60;52.70;;;;;;5052646;28;20390;-76
2022/09/12 03:29:17;;;;;;;;;;;27.70;52.70;;;;;;5054008;28;19944;-74
2022/09/12 03:31:51;;;;;;;;;;;28.40;51.40;;;;;;5053041;28;19926;-77
2022/09/12 03:34:22;;;;;;;;;;;28.00;50.40;;;;;;5050907;28;20011;-73
2022/09/12 03:36:49;;;;;;;;;;;28.00;50.90;;;;;;5055313;28;19913;-74
2022/09/12 03:39:16;;;;;;;;;;;28.20;50.60;;;;;;5066344;28;19908;-75
2022/09/12 03:41:43;;;;;;;;;;;28.60;51.80;;;;;;5046297;28;19917;-81
2022/09/12 03:44:10;;;;;;;;;;;28.90;49.30;;;;;;5058519;28;19963;-73
2022/09/12 03:46:36;;;;;;;;;;;28.80;49.90;;;;;;5052225;28;19908;-76
2022/09/12 03:49:03;;;;;;;;;;;28.80;49.70;;;;;;5060724;28;19915;-78
2022/09/12 03:51:30;;;;;;;;;;;28.90;49.80;;;;;;5065357;28;19917;-77
2022/09/12 03:53:56;;;;;;;;;;;28.50;49.70;;;;;;5067811;28;19915;-78
2022/09/12 03:56:23;;;;;;;;;;;28.30;51.00;;;;;;5067159;28;19909;-75
2022/09/12 03:58:50;;;;;;;;;;;27.60;49.70;;;;;;5054398;28;19921;-77
2022/09/12 04:01:18;;;;;;;;;;;27.20;50.90;;;;;;5057589;28;19913;-76
2022/09/12 04:03:45;;;;;;;;;;;26.90;51.50;;;;;;5063371;28;19909;-77
2022/09/12 04:06:14;;;;;;;;;;;26.90;52.70;;;;;;5061023;28;19909;-76
2022/09/12 04:08:42;;;;;;;;;;;26.80;51.80;;;;;;5061339;28;20499;-74
2022/09/12 04:11:11;;;;;;;;;;;26.60;53.10;;;;;;5061548;28;19916;-77
2022/09/12 04:13:38;;;;;;;;;;;26.50;51.50;;;;;;5061063;28;19948;-75
2022/09/12 04:16:05;;;;;;;;;;;26.80;51.50;;;;;;5059642;28;19954;-76
2022/09/12 04:18:32;;;;;;;;;;;27.00;50.40;;;;;;5060412;28;19908;-75
2022/09/12 04:21:02;;;;;;;;;;;26.40;51.00;;;;;;5063281;28;19909;-76
2022/09/12 04:23:29;;;;;;;;;;;25.80;51.70;;;;;;5061741;28;19909;-77
2022/09/12 04:25:56;;;;;;;;;;;24.90;53.30;;;;;;5061122;28;20361;-74
2022/09/12 04:28:23;;;;;;;;;;;24.30;53.40;;;;;;5059435;28;20423;-75
2022/09/12 04:30:50;;;;;;;;;;;24.30;54.30;;;;;;5062198;28;20004;-73
2022/09/12 04:33:17;;;;;;;;;;;24.90;53.10;;;;;;5060616;28;19908;-74
2022/09/12 04:35:44;;;;;;;;;;;25.20;52.40;;;;;;5061480;28;19978;-74
2022/09/12 04:38:11;;;;;;;;;;;25.30;52.30;;;;;;5060396;28;19909;-75
2022/09/12 04:40:37;;;;;;;;;;;25.60;51.80;;;;;;5061399;28;20300;-74
2022/09/12 04:43:05;;;;;;;;;;;25.70;52.30;;;;;;5061882;28;19912;-75
2022/09/12 04:45:32;;;;;;;;;;;25.50;52.10;;;;;;5060215;28;19963;-76
2022/09/12 04:47:59;;;;;;;;;;;25.40;52.90;;;;;;5059524;28;20373;-74
2022/09/12 04:50:25;;;;;;;;;;;25.70;51.80;;;;;;5061224;28;19963;-74
2022/09/12 04:52:53;;;;;;;;;;;25.50;52.00;;;;;;5061393;28;19951;-77
2022/09/12 04:55:20;;;;;;;;;;;25.50;52.00;;;;;;5061314;28;19909;-74
2022/09/12 04:57:47;;;;;;;;;;;25.60;53.30;;;;;;5062666;28;19963;-78
2022/09/12 05:00:14;;;;;;;;;;;26.40;52.80;;;;;;5064647;28;19924;-77
2022/09/12 05:02:41;;;;;;;;;;;27.00;51.00;;;;;;5065528;28;19913;-76
2022/09/12 05:05:08;;;;;;;;;;;27.00;50.80;;;;;;5065644;28;19989;-75
2022/09/12 05:07:35;;;;;;;;;;;26.50;50.80;;;;;;5064328;28;19909;-74
2022/09/12 05:10:03;;;;;;;;;;;26.40;51.60;;;;;;5063261;28;20334;-76
2022/09/12 05:12:30;;;;;;;;;;;26.10;50.80;;;;;;5066673;28;19966;-75
2022/09/12 05:14:57;;;;;;;;;;;25.70;53.40;;;;;;5064725;28;19908;-78
2022/09/12 05:17:23;;;;;;;;;;;25.10;52.50;;;;;;5063186;28;19920;-76
2022/09/12 05:19:50;;;;;;;;;;;24.60;53.70;;;;;;5064200;28;19908;-75
2022/09/12 05:22:16;;;;;;;;;;;24.00;54.20;;;;;;5063402;28;19947;-78
2022/09/12 05:24:43;;;;;;;;;;;23.40;55.10;;;;;;5064618;28;19916;-77
2022/09/12 05:27:10;;;;;;;;;;;22.80;56.40;;;;;;5060558;28;20008;-79
2022/09/12 05:29:37;;;;;;;;;;;22.60;56.90;;;;;;5063546;28;19913;-75
2022/09/12 05:32:04;;;;;;;;;;;22.40;57.60;;;;;;5065615;28;20572;-73
2022/09/12 05:34:30;;;;;;;;;;;22.10;56.40;;;;;;5062128;28;19999;-75
2022/09/12 05:36:57;;;;;;;;;;;21.80;56.30;;;;;;5063522;28;19962;-73
2022/09/12 05:39:24;;;;;;;;;;;21.50;57.60;;;;;;5064986;28;20659;-78
2022/09/12 05:41:51;;;;;;;;;;;21.30;58.50;;;;;;5046640;28;19998;-78
2022/09/12 05:44:17;;;;;;;;;;;21.10;58.00;;;;;;5062943;28;19912;-73
2022/09/12 05:46:49;;;;;;;;;;;21.10;58.60;;;;;;5061548;28;19928;-75
2022/09/12 05:49:15;;;;;;;;;;;20.90;58.60;;;;;;5058218;28;19959;-74
2022/09/12 05:51:44;;;;;;;;;;;21.00;59.10;;;;;;5061920;28;20372;-75
2022/09/12 05:54:13;;;;;;;;;;;21.30;59.00;;;;;;5063995;28;19919;-74
2022/09/12 05:56:41;;;;;;;;;;;22.10;58.10;;;;;;5063279;28;20003;-76
2022/09/12 05:59:18;;;;;;;;;;;23.30;56.40;;;;;;5065614;28;20285;-78
2022/09/12 06:01:45;;;;;;;;;;;24.40;55.10;;;;;;5067525;28;20276;-78
2022/09/12 06:04:12;;;;;;;;;;;24.80;53.60;;;;;;5066484;28;20379;-74
2022/09/12 06:06:40;;;;;;;;;;;24.50;54.10;;;;;;5063150;28;20280;-72
2022/09/12 06:09:07;;;;;;;;;;;24.00;55.00;;;;;;5064925;28;19935;-73
2022/09/12 06:11:36;;;;;;;;;;;23.40;56.30;;;;;;5063374;28;19958;-76
2022/09/12 06:14:02;;;;;;;;;;;22.90;57.60;;;;;;5065296;28;19928;-74
2022/09/12 06:16:30;;;;;;;;;;;22.50;57.20;;;;;;5060968;28;19970;-76
2022/09/12 06:19:01;;;;;;;;;;;22.10;58.40;;;;;;5065553;28;19957;-77
2022/09/12 06:21:29;;;;;;;;;;;21.70;59.60;;;;;;5065436;28;19913;-76
2022/09/12 06:23:57;;;;;;;;;;;21.30;59.70;;;;;;5064108;28;19908;-80
2022/09/12 06:26:24;;;;;;;;;;;21.00;59.90;;;;;;5061033;28;20316;-76
2022/09/12 06:28:52;;;;;;;;;;;20.50;61.30;;;;;;5064931;28;19951;-78
2022/09/12 06:31:20;;;;;;;;;;;20.20;61.90;;;;;;5047974;28;20644;-77
2022/09/12 06:33:49;;;;;;;;;;;19.90;62.30;;;;;;5062410;28;19967;-77
2022/09/12 06:36:17;;;;;;;;;;;19.70;64.10;;;;;;5063784;28;19908;-77
2022/09/12 06:38:47;;;;;;;;;;;19.60;63.70;;;;;;5064581;28;20586;-80
2022/09/12 06:41:14;;;;;;;;;;;19.50;64.30;;;;;;5066534;28;19920;-83
2022/09/12 06:43:42;;;;;;;;;;;19.50;65.50;;;;;;5062873;28;20419;-75
2022/09/12 06:46:09;;;;;;;;;;;19.60;65.00;;;;;;5064701;28;19908;-76
2022/09/12 06:48:36;;;;;;;;;;;19.50;64.40;;;;;;5061819;28;20357;-77
2022/09/12 06:51:04;;;;;;;;;;;19.40;63.90;;;;;;5067588;28;20001;-73
2022/09/12 06:53:35;;;;;;;;;;;19.40;63.80;;;;;;5063157;28;20416;-76
2022/09/12 06:56:04;;;;;;;;;;;19.30;63.50;;;;;;5044455;28;20312;-74
2022/09/12 06:58:31;;;;;;;;;;;19.10;64.40;;;;;;5061242;28;19917;-73
2022/09/12 07:01:04;;;;;;;;;;;19.10;65.00;;;;;;5061900;28;19924;-73
2022/09/12 07:03:31;;;;;;;;;;;19.00;65.40;;;;;;5064356;28;19923;-73
2022/09/12 07:06:08;;;;;;;;;;;18.90;64.80;;;;;;5063516;28;19917;-75
2022/09/12 07:08:36;;;;;;;;;;;18.90;64.80;;;;;;5064507;28;19913;-75
2022/09/12 07:11:10;;;;;;;;;;;18.70;65.70;;;;;;5063828;28;19970;-77
2022/09/12 07:13:37;;;;;;;;;;;18.60;65.90;;;;;;5061424;28;19935;-73
2022/09/12 07:16:04;;;;;;;;;;;18.40;66.30;;;;;;5061642;28;19916;-74
2022/09/12 07:18:31;;;;;;;;;;;18.50;66.70;;;;;;5064067;28;19920;-74
2022/09/12 07:21:02;;;;;;;;;;;18.40;66.30;;;;;;5063101;28;20000;-75
2022/09/12 07:23:28;;;;;;;;;;;18.30;66.30;;;;;;5061791;28;19916;-75
2022/09/12 07:25:56;;;;;;;;;;;18.30;66.60;;;;;;5059235;28;19912;-73
2022/09/12 07:28:23;;;;;;;;;;;18.30;67.10;;;;;;5043915;28;19913;-74
2022/09/12 07:30:52;;;;;;;;;;;18.30;66.80;;;;;;5058152;28;19925;-73
2022/09/12 07:33:20;;;;;;;;;;;18.20;66.50;;;;;;5055827;28;19925;-76
2022/09/12 07:35:46;;;;;;;;;;;18.20;66.80;;;;;;5063464;28;20545;-76
2022/09/12 07:38:13;;;;;;;;;;;18.20;67.30;;;;;;5064133;28;19909;-72
2022/09/12 07:40:43;;;;;;;;;;;18.10;67.50;;;;;;5063920;28;19913;-75
2022/09/12 07:43:10;;;;;;;;;;;18.10;67.80;;;;;;5058033;28;19927;-73
2022/09/12 07:45:37;;;;;;;;;;;18.10;68.90;;;;;;5061126;28;20003;-73
2022/09/12 07:48:06;;;;;;;;;;;18.00;68.60;;;;;;5065885;28;20471;-74
2022/09/12 07:50:33;;;;;;;;;;;18.00;69.20;;;;;;5059630;28;19970;-72
2022/09/12 07:53:01;;;;;;;;;;;18.00;68.70;;;;;;5059668;28;19908;-73
2022/09/12 07:55:28;;;;;;;;;;;17.90;69.20;;;;;;5064602;28;20242;-75
2022/09/12 07:57:55;;;;;;;;;;;17.90;69.20;;;;;;5045606;28;19995;-74
2022/09/12 08:00:22;;;;;;;;;;;17.70;69.30;;;;;;5050871;28;19921;-78
2022/09/12 08:02:52;;;;;;;;;;;17.70;69.90;;;;;;5061697;28;20003;-73
2022/09/12 08:05:20;;;;;;;;;;;17.70;70.50;;;;;;5060079;28;20045;-74
2022/09/12 08:07:47;;;;;;;;;;;17.70;70.30;;;;;;5058824;28;20390;-75
2022/09/12 08:10:15;;;;;;;;;;;17.60;69.90;;;;;;5061854;28;19960;-73
2022/09/12 08:12:43;;;;;;;;;;;17.60;70.20;;;;;;5059041;28;19913;-75
2022/09/12 08:15:10;;;;;;;;;;;17.50;69.90;;;;;;5062512;28;19920;-73
2022/09/12 08:17:40;;;;;;;;;;;17.50;70.80;;;;;;5064373;28;20288;-74
2022/09/12 08:20:06;;;;;;;;;;;17.60;71.60;;;;;;5063990;28;19912;-74
2022/09/12 08:22:36;;;;;;;;;;;17.50;72.00;;;;;;5059861;28;20002;-76
2022/09/12 08:25:03;;;;;;;;;;;17.50;72.40;;;;;;5064061;28;19921;-80
2022/09/12 08:27:30;;;;;;;;;;;17.40;72.20;;;;;;5060738;28;19909;-73
2022/09/12 08:29:57;;;;;;;;;;;17.40;73.00;;;;;;5060088;28;19959;-73
2022/09/12 08:32:24;;;;;;;;;;;17.40;73.30;;;;;;5065421;28;19943;-73
2022/09/12 08:34:51;;;;;;;;;;;17.30;73.40;;;;;;5064566;28;19919;-71
2022/09/12 08:37:18;;;;;;;;;;;17.20;73.80;;;;;;5064167;28;20286;-72
2022/09/12 08:39:48;;;;;;;;;;;17.10;74.50;;;;;;5065099;28;20023;-71
2022/09/12 08:42:31;;;;;;;;;;;17.00;75.30;;;;;;5062529;28;19908;-69
2022/09/12 08:45:06;;;;;;;;;;;16.80;75.00;;;;;;5044611;28;19912;-70
2022/09/12 08:47:33;;;;;;;;;;;16.70;75.80;;;;;;5074471;28;19920;-70
2022/09/12 08:50:03;;;;;;;;;;;16.60;76.80;;;;;;5069151;28;19923;-70
2022/09/12 08:52:47;;;;;;;;;;;16.50;77.00;;;;;;5064006;28;20440;-69
2022/09/12 08:55:23;;;;;;;;;;;16.40;77.60;;;;;;5064307;28;19920;-71
2022/09/12 08:57:50;;;;;;;;;;;16.30;77.80;;;;;;5053449;28;20381;-70
2022/09/12 09:00:21;;;;;;;;;;;16.20;78.70;;;;;;5063717;28;20372;-70
2022/09/12 09:02:54;;;;;;;;;;;16.10;78.70;;;;;;5062744;28;19912;-70
2022/09/12 09:05:39;;;;;;;;;;;16.10;78.90;;;;;;5065140;28;19963;-70
2022/09/12 09:08:21;;;;;;;;;;;16.00;79.90;;;;;;5061878;28;20268;-70
2022/09/12 09:10:56;;;;;;;;;;;16.00;80.30;;;;;;5063089;28;19939;-74
2022/09/12 09:16:45;;;;;;;;;;;15.90;80.50;;;;;;5063439;28;19970;-70
2022/09/12 09:19:18;;;;;;;;;;;15.80;81.10;;;;;;5039951;28;19974;-69
2022/09/12 09:21:49;;;;;;;;;;;15.70;82.30;;;;;;5063357;28;20018;-70
2022/09/12 09:24:19;;;;;;;;;;;15.70;82.10;;;;;;5062904;28;19909;-70
2022/09/12 09:27:00;;;;;;;;;;;15.60;82.60;;;;;;5064165;28;19909;-70
2022/09/12 09:29:29;;;;;;;;;;;15.60;83.00;;;;;;5064650;28;20365;-71
2022/09/12 09:31:57;;;;;;;;;;;15.60;84.40;;;;;;5064610;28;19920;-71
2022/09/12 09:34:27;;;;;;;;;;;15.50;84.30;;;;;;5066304;28;20106;-71
2022/09/12 09:37:14;;;;;;;;;;;15.40;83.70;;;;;;5057081;28;19931;-71
2022/09/12 09:39:59;;;;;;;;;;;15.30;84.70;;;;;;5062525;28;19909;-71
2022/09/12 09:42:25;;;;;;;;;;;15.40;85.20;;;;;;5063489;28;20396;-71
2022/09/12 09:44:53;;;;;;;;;;;15.30;85.10;;;;;;5054192;28;19947;-71
2022/09/12 09:47:20;;;;;;;;;;;15.30;85.30;;;;;;5056688;28;19973;-71
2022/09/12 09:49:46;;;;;;;;;;;15.30;86.30;;;;;;5060504;28;19909;-74
2022/09/12 09:52:16;;;;;;;;;;;15.20;86.10;;;;;;5058517;28;19917;-75
2022/09/12 09:54:48;;;;;;;;;;;15.20;86.80;;;;;;5040904;28;20505;-74
2022/09/12 09:57:33;;;;;;;;;;;15.10;86.80;;;;;;5062288;28;19915;-76
2022/09/12 10:00:25;;;;;;;;;;;15.10;87.30;;;;;;5070491;28;19927;-71
2022/09/12 10:02:58;;;;;;;;;;;15.00;87.00;;;;;;5063707;28;19912;-80
2022/09/12 10:05:25;;;;;;;;;;;14.90;87.50;;;;;;5060038;28;20361;-78
2022/09/12 10:07:52;;;;;;;;;;;14.90;87.90;;;;;;5065642;28;19916;-81
2022/09/12 10:10:21;;;;;;;;;;;14.80;87.90;;;;;;5057785;28;19940;-75
2022/09/12 10:12:48;;;;;;;;;;;14.90;88.70;;;;;;5060012;28;19920;-75
2022/09/12 10:15:22;;;;;;;;;;;14.90;89.00;;;;;;5064931;28;19909;-72
2022/09/12 10:17:50;;;;;;;;;;;14.80;88.90;;;;;;5063113;28;19909;-76
2022/09/12 10:20:35;;;;;;;;;;;14.80;89.00;;;;;;5062158;28;20537;-73
2022/09/12 10:23:07;;;;;;;;;;;14.70;89.00;;;;;;5064756;28;20004;-73
2022/09/12 10:25:34;;;;;;;;;;;14.70;89.50;;;;;;5063897;28;19931;-73
2022/09/12 10:28:01;;;;;;;;;;;14.70;89.90;;;;;;5067061;28;19912;-72
2022/09/12 10:30:28;;;;;;;;;;;14.60;90.20;;;;;;5064371;28;19927;-73
2022/09/12 10:33:05;;;;;;;;;;;14.60;90.20;;;;;;5060949;28;19916;-72
2022/09/12 10:35:41;;;;;;;;;;;14.50;90.50;;;;;;5064930;28;19909;-80
2022/09/12 10:38:28;;;;;;;;;;;14.50;90.60;;;;;;5062081;28;19917;-80
2022/09/12 10:40:58;;;;;;;;;;;14.50;90.50;;;;;;5062623;28;20640;-82
2022/09/12 10:43:30;;;;;;;;;;;14.40;90.90;;;;;;5061706;28;20044;-80
2022/09/12 10:45:57;;;;;;;;;;;14.40;90.90;;;;;;5061669;28;20013;-81
2022/09/12 10:48:24;;;;;;;;;;;14.30;91.10;;;;;;5061037;28;19967;-78
2022/09/12 10:50:51;;;;;;;;;;;14.30;91.20;;;;;;5062513;28;19970;-77
2022/09/12 10:53:22;;;;;;;;;;;14.20;91.20;;;;;;5059779;28;20308;-76
2022/09/12 10:55:51;;;;;;;;;;;14.20;90.10;;;;;;5061230;28;20268;-82
2022/09/12 10:58:26;;;;;;;;;;;14.20;89.20;;;;;;5062888;28;19966;-79
2022/09/12 11:00:57;;;;;;;;;;;14.30;86.50;;;;;;5059929;28;19916;-80
2022/09/12 11:03:36;;;;;;;;;;;14.30;85.10;;;;;;5057633;28;19916;-77
2022/09/12 11:06:03;;;;;;;;;;;14.40;83.90;;;;;;5063871;28;19912;-79
2022/09/12 11:08:43;;;;;;;;;;;14.50;83.50;;;;;;5065447;28;20387;-73
2022/09/12 11:11:18;;;;;;;;;;;14.50;82.90;;;;;;5064662;28;19967;-74
2022/09/12 11:13:52;;;;;;;;;;;14.60;82.20;;;;;;5068271;28;19916;-75
2022/09/12 11:16:25;;;;;;;;;;;14.70;82.90;;;;;;5052036;28;19962;-72
2022/09/12 11:19:09;;;;;;;;;;;14.60;82.30;;;;;;5072011;28;19915;-74
2022/09/12 11:21:47;;;;;;;;;;;14.60;82.60;;;;;;5056757;28;19956;-75
2022/09/12 11:24:25;;;;;;;;;;;14.60;81.40;;;;;;5059817;28;19928;-79
2022/09/12 11:27:05;;;;;;;;;;;14.70;81.30;;;;;;5062189;28;19935;-76
2022/09/12 11:30:01;;;;;;;;;;;14.70;81.30;;;;;;5059330;28;19928;-72
2022/09/12 11:32:40;;;;;;;;;;;14.80;81.00;;;;;;5051190;28;20026;-76
2022/09/12 11:35:12;;;;;;;;;;;14.90;81.50;;;;;;5061135;28;19917;-71
2022/09/12 11:37:39;;;;;;;;;;;14.80;80.90;;;;;;5065406;28;19909;-78
2022/09/12 11:40:17;;;;;;;;;;;14.80;80.90;;;;;;5063681;28;19962;-75
2022/09/12 11:42:43;;;;;;;;;;;14.90;80.40;;;;;;5062154;28;19912;-75
2022/09/12 11:45:19;;;;;;;;;;;14.90;80.50;;;;;;5054266;28;19932;-72
2022/09/12 11:47:48;;;;;;;;;;;15.00;80.20;;;;;;5058999;28;19924;-77
2022/09/12 11:50:25;;;;;;;;;;;15.00;80.40;;;;;;5063966;28;19932;-70
2022/09/12 11:52:54;;;;;;;;;;;15.00;81.00;;;;;;5060709;28;20023;-77
2022/09/12 11:55:28;;;;;;;;;;;15.00;80.80;;;;;;5056862;28;20357;-77
2022/09/12 11:57:55;;;;;;;;;;;15.00;80.30;;;;;;5056221;28;19912;-71
2022/09/12 12:00:25;;;;;;;;;;;15.00;80.50;;;;;;5058074;28;19920;-76
2022/09/12 12:03:00;;;;;;;;;;;15.00;80.70;;;;;;5043873;28;19968;-79
2022/09/12 12:05:46;;;;;;;;;;;14.90;80.30;;;;;;5061649;28;19962;-80
2022/09/12 12:08:13;;;;;;;;;;;14.90;80.50;;;;;;5049446;28;19952;-76
2022/09/12 12:10:48;;;;;;;;;;;14.90;80.00;;;;;;5043203;28;20007;-76
2022/09/12 12:13:18;;;;;;;;;;;14.90;80.30;;;;;;5061424;28;19916;-74
2022/09/12 12:15:47;;;;;;;;;;;14.80;80.50;;;;;;5056653;28;19912;-80
2022/09/12 12:18:16;;;;;;;;;;;14.80;81.00;;;;;;5058911;28;19919;-74
2022/09/12 12:20:43;;;;;;;;;;;14.70;80.60;;;;;;5060681;28;19942;-76
2022/09/12 12:23:42;;;;;;;;;;;14.70;81.40;;;;;;5060099;28;20001;-75
2022/09/12 12:26:28;;;;;;;;;;;14.60;81.20;;;;;;5039038;28;20007;-71
2022/09/12 12:28:57;;;;;;;;;;;14.60;81.40;;;;;;5060751;28;20046;-77
2022/09/12 12:31:23;;;;;;;;;;;14.50;81.40;;;;;;5062420;28;20383;-72
2022/09/12 12:33:50;;;;;;;;;;;14.50;81.40;;;;;;5065730;28;19928;-73
2022/09/12 12:36:28;;;;;;;;;;;14.50;81.80;;;;;;5063195;28;20268;-81
2022/09/12 12:38:55;;;;;;;;;;;14.50;81.70;;;;;;5056020;28;19913;-84
2022/09/12 12:41:22;;;;;;;;;;;14.40;82.00;;;;;;5053681;28;19936;-80
2022/09/12 12:43:55;;;;;;;;;;;14.50;82.20;;;;;;5061532;28;19921;-78
2022/09/12 12:46:26;;;;;;;;;;;14.40;82.60;;;;;;5059856;28;19913;-78
2022/09/12 12:48:58;;;;;;;;;;;14.40;82.00;;;;;;5058011;28;19909;-81
2022/09/12 12:51:43;;;;;;;;;;;14.30;83.00;;;;;;5054217;28;19928;-79
2022/09/12 12:54:26;;;;;;;;;;;14.30;82.30;;;;;;5057960;28;19920;-83
2022/09/12 12:57:11;;;;;;;;;;;14.30;82.60;;;;;;5059967;28;19912;-75
2022/09/12 12:59:45;;;;;;;;;;;14.30;82.60;;;;;;5067027;28;19920;-74
2022/09/12 13:02:19;;;;;;;;;;;14.30;82.50;;;;;;5056767;28;19920;-73
2022/09/12 13:04:47;;;;;;;;;;;14.30;82.90;;;;;;5043236;28;19917;-79
2022/09/12 13:07:21;;;;;;;;;;;14.30;83.20;;;;;;5058710;28;19913;-78
2022/09/12 13:09:51;;;;;;;;;;;14.20;83.00;;;;;;5054125;28;20361;-76
2022/09/12 13:12:38;;;;;;;;;;;14.20;83.70;;;;;;5070685;28;20273;-72
2022/09/12 13:15:24;;;;;;;;;;;14.20;83.30;;;;;;5061848;28;20353;-78
2022/09/12 13:17:51;;;;;;;;;;;14.10;83.60;;;;;;5073678;28;20380;-73
2022/09/12 13:20:21;;;;;;;;;;;14.10;84.30;;;;;;5073387;28;19963;-78
2022/09/12 13:22:49;;;;;;;;;;;14.10;84.50;;;;;;5074025;28;19920;-80
2022/09/12 13:25:21;;;;;;;;;;;14.00;84.20;;;;;;5074426;28;19923;-80
2022/09/12 13:27:57;;;;;;;;;;;14.00;84.40;;;;;;5074728;28;19908;-75
2022/09/12 13:30:24;;;;;;;;;;;14.00;84.40;;;;;;5074404;28;19912;-74
2022/09/12 13:32:51;;;;;;;;;;;14.00;84.90;;;;;;5074122;28;20288;-79
2022/09/12 13:35:18;;;;;;;;;;;14.00;84.80;;;;;;5073882;28;19920;-81
2022/09/12 13:37:53;;;;;;;;;;;13.90;84.80;;;;;;5074342;28;19999;-77
2022/09/12 13:40:36;;;;;;;;;;;14.00;85.50;;;;;;5074642;28;20353;-74
2022/09/12 13:43:08;;;;;;;;;;;14.00;85.40;;;;;;5074412;28;20330;-77
2022/09/12 13:45:38;;;;;;;;;;;14.00;85.00;;;;;;5073806;28;19912;-82
2022/09/12 13:48:05;;;;;;;;;;;14.00;85.60;;;;;;5074925;28;20357;-77
2022/09/12 13:50:36;;;;;;;;;;;14.00;85.70;;;;;;5073869;28;19921;-74
2022/09/12 13:53:10;;;;;;;;;;;14.00;85.70;;;;;;5074011;28;20387;-75
2022/09/12 13:55:39;;;;;;;;;;;14.00;86.10;;;;;;5074072;28;19923;-75
2022/09/12 13:58:16;;;;;;;;;;;14.10;86.10;;;;;;5074391;28;19970;-78
2022/09/12 14:00:43;;;;;;;;;;;14.10;86.10;;;;;;5074718;28;19923;-78
2022/09/12 14:06:15;;;;;;;;;;;14.10;85.60;;;;;;5074718;28;20050;-81
2022/09/12 14:08:43;;;;;;;;;;;14.20;85.70;;;;;;5073769;28;19908;-82
2022/09/12 14:11:10;;;;;;;;;;;14.10;85.60;;;;;;5073753;28;19926;-79
2022/09/12 14:13:38;;;;;;;;;;;14.20;86.10;;;;;;5074120;28;19944;-81
2022/09/12 14:16:08;;;;;;;;;;;14.20;86.20;;;;;;5073611;28;20383;-78
2022/09/12 14:18:36;;;;;;;;;;;14.20;86.00;;;;;;5074058;28;19916;-78
2022/09/12 14:21:10;;;;;;;;;;;14.20;85.80;;;;;;5074470;28;19909;-77
2022/09/12 14:23:40;;;;;;;;;;;14.20;86.00;;;;;;5073978;28;19958;-78
2022/09/12 14:26:10;;;;;;;;;;;14.10;86.00;;;;;;5073422;28;19932;-79
2022/09/12 14:28:41;;;;;;;;;;;14.10;86.00;;;;;;5072810;28;19908;-81
2022/09/12 14:31:17;;;;;;;;;;;14.10;86.20;;;;;;5073701;28;20284;-76
2022/09/12 14:33:48;;;;;;;;;;;14.00;86.20;;;;;;5073742;28;19912;-81
2022/09/12 14:36:20;;;;;;;;;;;14.00;86.60;;;;;;5073202;28;19919;-80
2022/09/12 14:38:49;;;;;;;;;;;14.00;86.60;;;;;;5073935;28;19909;-76
2022/09/12 14:41:21;;;;;;;;;;;13.90;86.80;;;;;;5072721;28;20038;-71
2022/09/12 14:43:51;;;;;;;;;;;13.80;87.00;;;;;;5072174;28;19951;-79